Time;durP1;ratioP1;P1;durP2;ratioP2;P2;SDS_P1;SDS_P2;PMS_P1;PMS_P2;Temp;Humidity;BMP_temperature;BMP_pressure;BME280_temperature;BME280_humidity;BME280_pressure;Samples;Min_cycle;Max_cycle;Signal;HPM_P1;HPM_P2
2022/10/15 00:01:22;;;;;;;4.53;4.15;;;;;;;12.30;100.00;63269.34;4964058;29;20272;-77
2022/10/15 00:03:49;;;;;;;5.57;4.07;;;;;;;12.32;100.00;63270.91;4951744;29;20396;-76
2022/10/15 00:06:19;;;;;;;4.65;4.30;;;;;;;12.09;100.00;63247.59;4965440;29;20204;-76
2022/10/15 00:08:47;;;;;;;4.57;4.13;;;;;;;11.89;100.00;63226.34;4964616;29;20225;-76
2022/10/15 00:11:16;;;;;;;3.88;3.63;;;;;;;11.91;100.00;63223.81;4965826;29;20542;-77
2022/10/15 00:13:43;;;;;;;5.55;5.05;;;;;;;12.03;100.00;63238.78;4965685;28;20221;-77
2022/10/15 00:16:13;;;;;;;5.00;4.05;;;;;;;12.11;100.00;63247.09;4964693;29;20208;-76
2022/10/15 00:18:40;;;;;;;4.82;4.32;;;;;;;12.16;100.00;63252.28;4964192;29;20251;-76
2022/10/15 00:21:08;;;;;;;4.70;4.30;;;;;;;12.18;100.00;63256.38;4951408;29;20225;-76
2022/10/15 00:23:37;;;;;;;5.38;4.63;;;;;;;12.17;100.00;63255.88;4957880;29;20225;-76
2022/10/15 00:26:06;;;;;;;4.70;4.30;;;;;;;12.23;100.00;63259.00;4965946;29;20215;-76
2022/10/15 00:28:33;;;;;;;5.47;4.95;;;;;;;12.26;100.00;63262.13;4962319;28;20292;-75
2022/10/15 00:31:01;;;;;;;5.18;4.68;;;;;;;12.25;100.00;63261.09;4947229;29;20233;-76
2022/10/15 00:33:28;;;;;;;5.78;4.35;;;;;;;12.22;100.00;63263.06;4966188;29;20587;-76
2022/10/15 00:36:02;;;;;;;5.60;4.00;;;;;;;12.23;100.00;63259.00;4964488;29;20518;-76
2022/10/15 00:38:30;;;;;;;6.28;4.65;;;;;;;12.19;100.00;63259.97;4955335;29;20283;-75
2022/10/15 00:40:58;;;;;;;5.22;4.50;;;;;;;12.19;100.00;63255.38;4964705;29;20448;-77
2022/10/15 00:43:44;;;;;;;5.22;4.72;;;;;;;12.15;100.00;63253.78;4965864;29;20621;-77
2022/10/15 00:46:25;;;;;;;5.30;4.80;;;;;;;12.18;100.00;63254.34;4962887;29;20390;-77
2022/10/15 00:48:55;;;;;;;4.75;4.35;;;;;;;12.12;100.00;63250.16;4964778;28;20307;-75
2022/10/15 00:51:24;;;;;;;6.15;4.93;;;;;;;12.13;100.00;63256.31;4965680;29;20220;-75
2022/10/15 00:53:52;;;;;;;5.45;4.95;;;;;;;12.17;100.00;63255.34;4963893;29;20228;-75
2022/10/15 00:56:22;;;;;;;5.45;4.90;;;;;;;12.17;100.00;63255.88;4951428;29;20252;-76
2022/10/15 00:58:52;;;;;;;5.45;4.82;;;;;;;12.25;100.00;63261.59;4965030;29;20264;-76
2022/10/15 01:01:19;;;;;;;8.25;6.03;;;;;;;12.12;100.00;63247.59;4965889;29;20248;-76
2022/10/15 01:03:46;;;;;;;5.30;4.90;;;;;;;12.09;100.00;63249.59;4963144;29;20225;-76
2022/10/15 01:06:13;;;;;;;6.43;5.50;;;;;;;12.12;100.00;63250.16;4951878;29;20261;-76
2022/10/15 01:08:39;;;;;;;6.63;6.05;;;;;;;12.01;100.00;63236.72;4964811;28;20267;-75
2022/10/15 01:11:22;;;;;;;8.27;6.32;;;;;;;11.95;100.00;63227.44;4965327;29;20424;-75
2022/10/15 01:14:00;;;;;;;8.05;5.95;;;;;;;12.01;100.00;63238.78;4962683;28;20228;-76
2022/10/15 01:16:36;;;;;;;6.05;5.55;;;;;;;12.01;100.00;63233.66;4965601;29;20397;-77
2022/10/15 01:19:10;;;;;;;6.35;5.80;;;;;;;11.87;100.00;63222.22;4965262;28;20263;-77
2022/10/15 01:21:42;;;;;;;7.10;5.95;;;;;;;11.83;100.00;63217.56;4963563;29;20264;-77
2022/10/15 01:24:42;;;;;;;5.80;5.20;;;;;;;11.72;100.00;63211.78;4938420;29;20632;-77
2022/10/15 01:27:24;;;;;;;5.35;4.95;;;;;;;11.65;100.00;63199.41;4964408;28;20225;-76
2022/10/15 01:30:23;;;;;;;5.05;4.65;;;;;;;11.64;100.00;63198.41;4965093;29;20424;-76
2022/10/15 01:33:15;;;;;;;4.95;4.65;;;;;;;11.58;100.00;63197.78;4957385;29;20233;-77
2022/10/15 01:35:49;;;;;;;5.13;4.78;;;;;;;11.55;100.00;63194.16;4964549;29;20200;-76
2022/10/15 01:38:43;;;;;;;7.10;5.25;;;;;;;11.42;100.00;63178.66;4964909;28;20227;-76
2022/10/15 01:41:15;;;;;;;6.10;4.72;;;;;;;11.46;100.00;63182.28;4958443;29;20241;-76
2022/10/15 01:43:48;;;;;;;5.07;4.70;;;;;;;11.58;100.00;63194.69;4949505;29;20537;-76
2022/10/15 01:46:21;;;;;;;6.72;5.28;;;;;;;11.56;100.00;63195.19;4964380;29;20199;-76
2022/10/15 01:48:54;;;;;;;5.53;5.05;;;;;;;11.47;100.00;63186.38;4962858;29;20525;-75
2022/10/15 01:51:24;;;;;;;5.68;4.80;;;;;;;11.38;100.00;63174.00;4957462;29;20224;-76
2022/10/15 01:53:52;;;;;;;5.55;5.05;;;;;;;11.44;100.00;63177.66;4964379;29;20248;-75
2022/10/15 01:56:22;;;;;;;5.50;4.95;;;;;;;11.40;100.00;63174.03;4964868;29;20204;-76
2022/10/15 01:58:52;;;;;;;6.15;5.50;;;;;;;11.51;100.00;63187.97;4963476;28;20230;-76
2022/10/15 02:01:19;;;;;;;6.22;4.53;;;;;;;11.51;100.00;63187.97;4946666;29;20233;-76
2022/10/15 02:03:48;;;;;;;4.30;4.00;;;;;;;11.49;100.00;63185.91;4955962;29;20393;-76
2022/10/15 02:06:22;;;;;;;3.90;3.70;;;;;;;11.61;100.00;63198.31;4963648;29;20201;-76
2022/10/15 02:09:01;;;;;;;4.72;4.43;;;;;;;11.60;100.00;63194.75;4956111;28;20225;-76
2022/10/15 02:11:30;;;;;;;4.18;3.88;;;;;;;11.63;100.00;63199.91;4946304;28;20508;-77
2022/10/15 02:14:03;;;;;;;4.78;4.38;;;;;;;11.74;100.00;63211.31;4965211;29;20236;-76
2022/10/15 02:16:38;;;;;;;4.63;4.30;;;;;;;11.84;100.00;63216.56;4963509;29;20258;-76
2022/10/15 02:19:09;;;;;;;4.53;4.20;;;;;;;11.85;100.00;63214.53;4945369;29;20497;-76
2022/10/15 02:21:43;;;;;;;5.15;4.65;;;;;;;11.80;100.00;63217.53;4957566;29;20219;-76
2022/10/15 02:24:15;;;;;;;5.00;4.57;;;;;;;11.78;100.00;63212.91;4965338;29;20201;-76
2022/10/15 02:26:43;;;;;;;5.03;4.50;;;;;;;11.86;100.00;63220.66;4957315;29;20425;-77
2022/10/15 02:29:13;;;;;;;4.28;3.97;;;;;;;11.92;100.00;63224.34;4945961;29;20244;-76
2022/10/15 02:31:43;;;;;;;4.28;3.88;;;;;;;11.90;100.00;63227.38;4945748;29;20221;-76
2022/10/15 02:34:15;;;;;;;4.60;4.20;;;;;;;11.89;100.00;63224.28;4949200;29;20208;-76
2022/10/15 02:36:46;;;;;;;4.25;3.85;;;;;;;11.78;100.00;63215.44;4963285;29;20200;-76
2022/10/15 02:39:18;;;;;;;4.07;3.78;;;;;;;11.56;100.00;63190.09;4967711;28;20200;-75
2022/10/15 02:41:47;;;;;;;7.07;3.53;;;;;;;11.71;100.00;63212.78;4968125;28;20201;-76
2022/10/15 02:44:13;;;;;;;3.78;3.58;;;;;;;11.70;100.00;63204.09;4966587;29;20205;-76
2022/10/15 02:46:40;;;;;;;4.47;4.07;;;;;;;11.56;100.00;63195.69;4966542;29;20193;-76
2022/10/15 02:49:07;;;;;;;4.45;4.15;;;;;;;11.63;100.00;63197.84;4968126;28;20228;-75
2022/10/15 02:51:35;;;;;;;4.68;4.30;;;;;;;11.72;100.00;63208.72;4967029;29;20463;-76
2022/10/15 02:54:05;;;;;;;4.30;4.00;;;;;;;11.69;100.00;63203.56;4962029;29;20502;-77
2022/10/15 02:56:32;;;;;;;4.53;4.15;;;;;;;11.76;100.00;63212.84;4968068;29;20192;-77
2022/10/15 02:58:59;;;;;;;4.30;4.00;;;;;;;11.84;100.00;63219.09;4967624;28;20316;-77
2022/10/15 03:01:26;;;;;;;4.88;4.10;;;;;;;11.94;100.00;63234.06;4965503;29;20240;-77
2022/10/15 03:03:53;;;;;;;5.47;3.95;;;;;;;11.96;100.00;63233.59;4959983;29;20241;-76
2022/10/15 03:06:20;;;;;;;4.28;3.92;;;;;;;11.84;100.00;63221.66;4965244;29;20213;-76
2022/10/15 03:08:47;;;;;;;5.10;3.88;;;;;;;11.72;100.00;63206.16;4967802;28;20580;-78
2022/10/15 03:11:15;;;;;;;4.28;3.97;;;;;;;11.65;100.00;63209.13;4967128;29;20548;-77
2022/10/15 03:13:42;;;;;;;4.88;4.47;;;;;;;11.57;100.00;63196.22;4967136;28;20225;-76
2022/10/15 03:16:10;;;;;;;4.63;4.25;;;;;;;11.39;100.00;63172.47;4967510;29;20208;-76
2022/10/15 03:18:37;;;;;;;5.25;4.63;;;;;;;11.36;100.00;63169.88;4967447;29;20221;-77
2022/10/15 03:21:05;;;;;;;4.70;4.28;;;;;;;11.46;100.00;63180.25;4964854;29;20244;-76
2022/10/15 03:23:32;;;;;;;4.35;3.85;;;;;;;11.40;100.00;63173.50;4966486;29;20221;-76
2022/10/15 03:25:58;;;;;;;4.80;4.45;;;;;;;11.52;100.00;63191.03;4967815;29;20275;-76
2022/10/15 03:28:27;;;;;;;4.90;4.40;;;;;;;11.52;100.00;63185.94;4966996;29;20256;-77
2022/10/15 03:30:53;;;;;;;4.78;4.35;;;;;;;11.60;100.00;63189.66;4956713;29;20205;-76
2022/10/15 03:33:20;;;;;;;5.63;4.55;;;;;;;11.67;100.00;63203.53;4962300;29;20231;-76
2022/10/15 03:35:47;;;;;;;5.00;4.55;;;;;;;11.61;100.00;63195.28;4967773;29;20213;-76
2022/10/15 03:38:14;;;;;;;4.53;4.13;;;;;;;11.59;100.00;63193.19;4965803;29;20237;-76
2022/10/15 03:40:41;;;;;;;4.72;4.30;;;;;;;11.61;100.00;63200.38;4954742;29;20255;-77
2022/10/15 03:43:08;;;;;;;5.13;4.43;;;;;;;11.43;100.00;63182.25;4949566;29;20265;-76
2022/10/15 03:45:36;;;;;;;6.07;4.60;;;;;;;11.42;100.00;63178.13;4967207;29;20200;-76
2022/10/15 03:48:02;;;;;;;4.57;4.25;;;;;;;11.37;100.00;63170.41;4961173;29;20322;-77
2022/10/15 03:50:29;;;;;;;6.20;5.28;;;;;;;11.29;100.00;63162.13;4955400;29;20195;-76
2022/10/15 03:52:56;;;;;;;5.40;5.00;;;;;;;11.34;100.00;63172.38;4966044;29;20549;-76
2022/10/15 03:55:23;;;;;;;5.10;4.68;;;;;;;11.32;100.00;63168.28;4962755;29;20212;-75
2022/10/15 03:57:49;;;;;;;4.65;4.25;;;;;;;11.30;100.00;63163.16;4955786;29;20231;-77
2022/10/15 04:00:17;;;;;;;5.82;4.68;;;;;;;11.23;100.00;63158.47;4964169;29;20251;-76
2022/10/15 04:02:45;;;;;;;5.60;5.20;;;;;;;11.20;100.00;63152.81;4966740;29;20227;-75
2022/10/15 04:05:12;;;;;;;5.20;4.70;;;;;;;11.12;100.00;63142.47;4965137;29;20201;-76
2022/10/15 04:07:39;;;;;;;4.35;4.05;;;;;;;11.09;100.00;63147.03;4951074;29;20288;-76
2022/10/15 04:10:06;;;;;;;5.30;4.80;;;;;;;11.06;100.00;63140.84;4947316;29;20205;-77
2022/10/15 04:12:33;;;;;;;5.28;4.78;;;;;;;11.02;100.00;63134.16;4947409;29;20241;-76
2022/10/15 04:15:00;;;;;;;5.45;4.95;;;;;;;11.00;100.00;63129.53;4946887;29;20213;-77
2022/10/15 04:17:27;;;;;;;5.82;5.18;;;;;;;11.03;100.00;63137.72;4947175;29;20395;-76
2022/10/15 04:19:55;;;;;;;5.72;5.10;;;;;;;10.92;100.00;63124.34;4950013;29;20247;-76
2022/10/15 04:22:22;;;;;;;5.30;4.80;;;;;;;10.83;100.00;63117.56;4964828;29;20221;-76
2022/10/15 04:24:49;;;;;;;8.25;5.25;;;;;;;10.66;100.00;63096.88;4956121;29;20201;-76
2022/10/15 04:27:15;;;;;;;5.78;5.30;;;;;;;10.75;100.00;63108.75;4951547;28;20220;-76
2022/10/15 04:29:42;;;;;;;5.90;5.32;;;;;;;10.73;100.00;63104.66;4962632;29;20395;-76
2022/10/15 04:32:12;;;;;;;5.50;5.07;;;;;;;10.82;100.00;63116.50;4964625;28;20248;-76
2022/10/15 04:34:39;;;;;;;6.95;6.28;;;;;;;10.83;100.00;63117.03;4965143;29;20204;-76
2022/10/15 04:37:08;;;;;;;6.28;5.78;;;;;;;10.69;100.00;63100.00;4965792;29;20229;-76
2022/10/15 04:39:34;;;;;;;7.30;5.30;;;;;;;10.72;100.00;63100.53;4964329;29;20217;-76
2022/10/15 04:42:01;;;;;;;6.30;5.70;;;;;;;10.51;100.00;63084.41;4963002;28;20207;-77
2022/10/15 04:44:28;;;;;;;6.25;5.70;;;;;;;10.59;100.00;63087.63;4960440;29;20261;-76
2022/10/15 04:46:58;;;;;;;8.90;5.63;;;;;;;10.58;100.00;63086.56;4965278;28;20248;-77
2022/10/15 04:49:25;;;;;;;6.57;5.63;;;;;;;10.71;100.00;63107.16;4965217;29;20208;-77
2022/10/15 04:51:56;;;;;;;6.30;5.70;;;;;;;10.76;100.00;63107.25;4966927;28;20236;-77
2022/10/15 04:54:42;;;;;;;6.13;5.63;;;;;;;10.56;100.00;63089.59;4967460;29;20474;-79
2022/10/15 04:57:09;;;;;;;7.03;6.35;;;;;;;10.62;100.00;63093.28;4964655;28;20335;-78
2022/10/15 04:59:37;;;;;;;6.32;5.80;;;;;;;10.59;100.00;63090.16;4957598;29;20504;-77
2022/10/15 05:02:03;;;;;;;6.28;5.38;;;;;;;10.71;100.00;63105.13;4964923;28;20232;-77
2022/10/15 05:04:30;;;;;;;5.57;5.07;;;;;;;10.78;100.00;63114.94;4965830;29;20200;-76
2022/10/15 05:06:57;;;;;;;6.25;5.75;;;;;;;10.79;100.00;63110.34;4960771;29;20206;-76
2022/10/15 05:09:24;;;;;;;5.78;5.15;;;;;;;10.99;100.00;63136.16;4957042;29;20212;-77
2022/10/15 05:11:54;;;;;;;7.82;5.38;;;;;;;11.07;100.00;63141.88;4964212;29;20236;-76
2022/10/15 05:14:21;;;;;;;5.43;4.93;;;;;;;11.18;100.00;63150.72;4963976;29;20197;-75
2022/10/15 05:16:48;;;;;;;6.82;5.47;;;;;;;11.25;100.00;63163.09;4966760;28;20201;-76
2022/10/15 05:19:15;;;;;;;7.15;6.43;;;;;;;11.11;100.00;63141.44;4964274;29;20432;-76
2022/10/15 05:21:42;;;;;;;6.95;6.07;;;;;;;10.91;100.00;63125.84;4965198;29;20378;-77
2022/10/15 05:24:10;;;;;;;7.28;6.57;;;;;;;11.05;100.00;63142.88;4963727;29;20201;-77
2022/10/15 05:26:37;;;;;;;8.10;5.97;;;;;;;11.23;100.00;63158.47;4964061;29;20204;-76
2022/10/15 05:29:05;;;;;;;7.65;6.07;;;;;;;11.33;100.00;63168.81;4965239;28;20220;-76
2022/10/15 05:31:33;;;;;;;6.65;6.10;;;;;;;11.41;100.00;63174.53;4966137;29;20498;-77
2022/10/15 05:34:06;;;;;;;6.57;5.95;;;;;;;11.57;100.00;63196.75;4951482;28;20417;-76
2022/10/15 05:36:34;;;;;;;6.53;5.72;;;;;;;11.66;100.00;63203.03;4954952;29;20204;-77
2022/10/15 05:39:09;;;;;;;6.28;5.68;;;;;;;11.69;100.00;63203.06;4964711;28;20224;-77
2022/10/15 05:41:36;;;;;;;5.70;5.22;;;;;;;11.80;100.00;63214.97;4962327;29;20251;-77
2022/10/15 05:44:03;;;;;;;9.88;6.30;;;;;;;11.84;100.00;63219.09;4945918;29;20583;-76
2022/10/15 05:46:31;;;;;;;6.38;5.88;;;;;;;11.88;100.00;63228.38;4965918;28;20252;-76
2022/10/15 05:48:58;;;;;;;6.70;6.05;;;;;;;11.90;100.00;63227.38;4963222;28;20592;-76
2022/10/15 05:51:27;;;;;;;5.38;5.00;;;;;;;11.70;100.00;63207.16;4955732;29;20205;-76
2022/10/15 05:53:55;;;;;;;5.90;5.30;;;;;;;11.71;100.00;63210.22;4951603;29;20236;-76
2022/10/15 05:56:22;;;;;;;6.45;5.65;;;;;;;11.76;100.00;63210.81;4964766;29;20197;-76
2022/10/15 05:58:50;;;;;;;7.88;5.30;;;;;;;11.97;100.00;63232.06;4964223;28;20291;-76
2022/10/15 06:01:17;;;;;;;7.65;4.82;;;;;;;12.05;100.00;63242.91;4963860;29;20204;-77
2022/10/15 06:03:45;;;;;;;7.28;5.88;;;;;;;12.29;100.00;63265.75;4972516;28;20274;-76
2022/10/15 06:06:17;;;;;;;6.55;5.45;;;;;;;12.44;100.00;63280.78;4956945;29;20308;-76
2022/10/15 06:08:44;;;;;;;5.43;4.80;;;;;;;12.64;100.00;63302.03;4963883;28;20444;-77
2022/10/15 06:11:11;;;;;;;7.43;4.82;;;;;;;12.51;100.00;63291.09;4981019;28;20288;-76
2022/10/15 06:13:39;;;;;;;5.72;5.32;;;;;;;12.46;100.00;63285.94;4965447;28;20299;-76
2022/10/15 06:16:06;;;;;;;4.90;4.40;;;;;;;12.73;100.00;63318.53;4966906;29;20201;-76
2022/10/15 06:18:33;;;;;;;5.38;4.88;;;;;;;12.92;100.00;63332.59;4967406;28;20224;-77
2022/10/15 06:21:01;;;;;;;5.97;4.72;;;;;;;12.92;100.00;63332.59;4964569;29;20209;-76
2022/10/15 06:23:28;;;;;;;5.82;5.28;;;;;;;13.01;100.00;63347.03;4966134;28;20267;-76
2022/10/15 06:25:55;;;;;;;5.65;5.15;;;;;;;13.18;100.00;63357.03;4966333;29;20524;-75
2022/10/15 06:28:22;;;;;;;7.70;5.05;;;;;;;13.40;100.00;63382.94;4965471;28;20261;-75
2022/10/15 06:30:49;;;;;;;6.53;4.65;;;;;;;13.47;100.00;63384.56;4966769;29;20792;-75
2022/10/15 06:33:16;;;;;;;5.15;4.65;;;;;;;13.55;99.21;63392.84;4964805;28;20307;-76
2022/10/15 06:35:42;;;;;;;5.32;4.53;;;;;;;13.28;100.00;63367.94;4965559;29;20201;-75
2022/10/15 06:38:12;;;;;;;8.95;5.28;;;;;;;13.29;100.00;63371.50;4966414;28;20353;-76
2022/10/15 06:40:39;;;;;;;6.47;5.97;;;;;;;13.29;99.97;63368.94;4963567;29;20204;-76
2022/10/15 06:43:08;;;;;;;8.32;4.50;;;;;;;13.12;100.00;63351.31;4967230;28;20212;-77
2022/10/15 06:45:36;;;;;;;6.72;6.07;;;;;;;13.16;100.00;63355.47;4966765;29;20353;-76
2022/10/15 06:48:04;;;;;;;5.78;5.28;;;;;;;13.21;100.00;63360.13;4964740;28;20295;-76
2022/10/15 06:50:31;;;;;;;8.60;6.15;;;;;;;13.26;100.00;63365.84;4964681;28;20197;-76
2022/10/15 06:52:58;;;;;;;7.30;5.22;;;;;;;13.37;100.00;63381.84;4965632;28;20232;-76
2022/10/15 06:55:27;;;;;;;6.10;5.15;;;;;;;13.40;98.86;63380.38;4966145;29;20495;-76
2022/10/15 06:57:54;;;;;;;5.60;4.88;;;;;;;13.24;99.30;63368.88;4964366;28;20227;-77
2022/10/15 07:00:21;;;;;;;5.28;4.88;;;;;;;13.38;98.69;63377.78;4966373;29;20213;-77
2022/10/15 07:02:48;;;;;;;7.70;4.72;;;;;;;13.47;97.83;63389.66;4966341;28;20220;-77
2022/10/15 07:05:15;;;;;;;6.07;4.57;;;;;;;13.48;96.92;63390.69;4964961;28;20243;-75
2022/10/15 07:07:43;;;;;;;4.80;4.40;;;;;;;13.54;95.95;63397.47;4964454;28;20241;-76
2022/10/15 07:10:10;;;;;;;5.55;4.45;;;;;;;13.57;95.79;63403.13;4964107;29;20231;-76
2022/10/15 07:12:38;;;;;;;13.05;4.78;;;;;;;13.62;95.26;63402.69;4967541;28;20240;-77
2022/10/15 07:15:06;;;;;;;6.05;5.55;;;;;;;13.68;94.79;63411.97;4962675;29;20205;-77
2022/10/15 07:17:34;;;;;;;6.97;4.63;;;;;;;13.77;94.37;63420.81;4964711;28;20553;-76
2022/10/15 07:20:00;;;;;;;5.22;4.78;;;;;;;13.85;94.07;63426.56;4966423;29;20196;-76
2022/10/15 07:22:27;;;;;;;5.57;4.90;;;;;;;13.80;92.97;63421.88;4966387;28;20224;-76
2022/10/15 07:24:54;;;;;;;6.07;4.57;;;;;;;13.78;93.35;63417.25;4963800;29;20224;-77
2022/10/15 07:27:21;;;;;;;4.97;4.50;;;;;;;14.10;93.28;63455.06;4969551;28;20228;-76
2022/10/15 07:29:49;;;;;;;5.65;5.10;;;;;;;14.27;91.51;63472.72;4963516;28;20205;-76
2022/10/15 07:32:17;;;;;;;6.55;5.00;;;;;;;14.27;91.02;63472.22;4966784;28;20232;-76
2022/10/15 07:34:43;;;;;;;5.50;5.07;;;;;;;14.35;91.26;63481.03;4965955;28;20454;-76
2022/10/15 07:37:10;;;;;;;7.30;5.43;;;;;;;14.33;90.88;63476.41;4966912;28;20469;-77
2022/10/15 07:39:37;;;;;;;5.38;4.85;;;;;;;14.28;90.10;63473.25;4964598;29;20252;-76
2022/10/15 07:42:04;;;;;;;5.13;4.60;;;;;;;14.21;88.89;63463.41;4963741;28;20224;-77
2022/10/15 07:44:31;;;;;;;7.63;5.35;;;;;;;14.13;89.02;63460.75;4967020;29;21574;-77
2022/10/15 07:46:59;;;;;;;5.35;4.85;;;;;;;14.16;89.07;63460.78;4965979;28;20252;-77
2022/10/15 07:49:26;;;;;;;5.07;4.55;;;;;;;14.27;89.42;63467.09;4964866;29;20201;-75
2022/10/15 07:51:52;;;;;;;8.75;5.28;;;;;;;14.20;88.39;63459.81;4964593;28;20553;-76
2022/10/15 07:54:20;;;;;;;4.72;4.32;;;;;;;14.39;88.50;63489.81;4965130;29;20243;-76
2022/10/15 07:56:46;;;;;;;6.10;4.95;;;;;;;14.55;87.16;63504.38;4964198;28;20435;-77
2022/10/15 07:59:13;;;;;;;6.22;4.47;;;;;;;14.70;84.71;63517.38;4964416;28;20196;-77
2022/10/15 08:01:40;;;;;;;7.22;4.60;;;;;;;14.60;85.00;63509.56;4963190;29;20204;-75
2022/10/15 08:04:08;;;;;;;4.75;4.35;;;;;;;14.74;82.79;63515.91;4965168;28;20216;-76
2022/10/15 08:06:35;;;;;;;5.03;4.50;;;;;;;14.87;86.02;63534.53;4962816;29;20498;-76
2022/10/15 08:09:04;;;;;;;7.70;4.75;;;;;;;15.18;84.55;63563.66;4963938;28;20216;-77
2022/10/15 08:11:30;;;;;;;5.32;4.93;;;;;;;15.37;81.33;63583.41;4966267;29;20255;-77
2022/10/15 08:13:57;;;;;;;5.20;4.70;;;;;;;15.56;81.05;63606.28;4965510;28;20444;-76
2022/10/15 08:16:24;;;;;;;5.30;4.55;;;;;;;15.80;77.16;63635.84;4958716;29;20216;-75
2022/10/15 08:18:51;;;;;;;5.10;4.47;;;;;;;15.80;76.26;63630.69;4950073;29;20229;-77
2022/10/15 08:21:19;;;;;;;6.85;5.15;;;;;;;15.21;76.64;63567.31;4956800;29;20220;-76
2022/10/15 08:23:46;;;;;;;5.57;4.28;;;;;;;15.44;76.76;63593.78;4966819;28;20220;-77
2022/10/15 08:26:13;;;;;;;5.60;4.72;;;;;;;15.67;77.72;63617.69;4966562;29;20236;-77
2022/10/15 08:28:40;;;;;;;4.97;4.57;;;;;;;15.80;74.71;63628.13;4964079;29;20399;-76
2022/10/15 08:31:06;;;;;;;7.50;5.15;;;;;;;15.74;72.13;63624.44;4953370;29;20356;-76
2022/10/15 08:33:34;;;;;;;4.75;4.15;;;;;;;15.82;73.56;63637.91;4947709;29;20240;-77
2022/10/15 08:36:00;;;;;;;5.18;4.72;;;;;;;15.86;71.86;63637.44;4946050;29;20206;-76
2022/10/15 08:38:30;;;;;;;4.78;4.38;;;;;;;15.94;72.34;63642.69;4964676;28;20230;-76
2022/10/15 08:40:59;;;;;;;5.28;4.32;;;;;;;16.09;72.97;63660.84;4968327;28;20251;-77
2022/10/15 08:43:33;;;;;;;7.07;5.60;;;;;;;15.98;71.91;63651.97;4970598;28;20540;-78
2022/10/15 08:46:04;;;;;;;5.28;4.88;;;;;;;15.64;74.08;63619.72;4966051;29;20382;-75
2022/10/15 08:48:34;;;;;;;6.50;5.50;;;;;;;15.40;73.56;63592.19;4955858;28;20272;-76
2022/10/15 08:51:06;;;;;;;4.57;4.18;;;;;;;15.47;75.28;63596.91;4961298;29;20489;-75
2022/10/15 08:53:40;;;;;;;4.60;4.20;;;;;;;15.62;72.78;63615.06;4966368;28;20253;-77
2022/10/15 08:56:17;;;;;;;7.43;4.07;;;;;;;15.82;72.93;63632.78;4962001;29;20501;-77
2022/10/15 08:58:53;;;;;;;4.90;4.38;;;;;;;16.07;72.94;63663.91;4961349;28;20291;-76
2022/10/15 09:01:27;;;;;;;7.60;5.68;;;;;;;16.34;70.00;63683.78;4947836;29;20247;-77
2022/10/15 09:04:05;;;;;;;6.55;5.25;;;;;;;16.57;68.69;63708.22;4950588;28;20599;-76
2022/10/15 09:06:36;;;;;;;5.78;5.05;;;;;;;16.66;66.08;63720.16;4957814;29;20251;-76
2022/10/15 09:09:12;;;;;;;5.53;4.93;;;;;;;16.80;66.13;63739.88;4947163;29;20224;-76
2022/10/15 09:11:50;;;;;;;29.13;20.17;;;;;;;16.89;65.80;63741.00;4955067;29;20243;-76
2022/10/15 09:14:20;;;;;;;7.80;6.85;;;;;;;16.72;63.55;63725.91;4964007;29;20475;-77
2022/10/15 09:16:49;;;;;;;13.98;11.95;;;;;;;16.73;66.07;63729.50;4948996;29;20208;-76
2022/10/15 09:19:18;;;;;;;13.88;10.93;;;;;;;16.91;64.85;63745.66;4974237;28;20205;-75
2022/10/15 09:21:47;;;;;;;10.15;5.72;;;;;;;17.03;59.39;63758.16;4962431;28;20543;-76
2022/10/15 09:24:21;;;;;;;7.82;4.47;;;;;;;17.10;59.92;63765.44;4963192;29;20373;-75
2022/10/15 09:26:59;;;;;;;4.20;3.88;;;;;;;17.21;61.75;63777.41;4953955;28;20403;-75
2022/10/15 09:29:33;;;;;;;6.10;4.30;;;;;;;17.04;61.65;63759.19;4951967;29;20207;-75
2022/10/15 09:32:11;;;;;;;4.72;3.42;;;;;;;17.19;60.66;63775.31;4962762;28;20274;-76
2022/10/15 09:34:42;;;;;;;4.13;3.83;;;;;;;17.19;60.88;63772.75;4963133;29;20552;-75
2022/10/15 09:37:17;;;;;;;4.15;3.80;;;;;;;16.90;61.09;63742.03;4965669;28;20251;-75
2022/10/15 09:40:00;;;;;;;4.82;4.28;;;;;;;17.23;59.12;63779.50;4962533;28;20208;-76
2022/10/15 09:42:31;;;;;;;4.18;3.80;;;;;;;17.51;58.20;63808.16;4966739;28;20250;-76
2022/10/15 09:45:01;;;;;;;4.15;3.80;;;;;;;17.48;53.65;63804.50;4957002;29;20504;-76
2022/10/15 09:47:29;;;;;;;4.05;3.60;;;;;;;17.51;54.44;63807.63;4966703;28;20249;-75
2022/10/15 09:49:56;;;;;;;4.03;3.67;;;;;;;17.72;54.56;63822.28;4967179;29;20433;-75
2022/10/15 09:52:37;;;;;;;7.05;3.67;;;;;;;17.86;53.81;63841.50;4968759;28;20532;-76
2022/10/15 09:55:15;;;;;;;4.50;4.20;;;;;;;17.62;54.47;63816.50;4968934;29;20279;-77
2022/10/15 09:57:47;;;;;;;4.05;3.65;;;;;;;17.56;54.00;63815.41;4966558;28;20227;-77
2022/10/15 10:00:14;;;;;;;6.38;3.67;;;;;;;17.69;54.00;63829.44;4953117;29;20414;-75
2022/10/15 10:02:40;;;;;;;3.72;3.42;;;;;;;17.64;52.86;63823.72;4959293;28;20227;-76
2022/10/15 10:05:28;;;;;;;4.25;3.95;;;;;;;17.49;54.23;63803.47;4969115;29;20215;-76
2022/10/15 10:08:08;;;;;;;4.28;3.92;;;;;;;17.50;54.22;63807.09;4966902;29;20421;-76
2022/10/15 10:10:38;;;;;;;4.10;3.80;;;;;;;17.71;54.21;63831.00;4962333;29;20437;-75
2022/10/15 10:13:23;;;;;;;4.07;3.83;;;;;;;17.45;54.11;63798.78;4968276;29;20220;-76
2022/10/15 10:15:52;;;;;;;3.90;3.70;;;;;;;17.48;53.02;63805.00;4967366;29;20256;-77
2022/10/15 10:18:21;;;;;;;5.78;3.72;;;;;;;17.44;51.90;63800.31;4968071;28;20588;-76
2022/10/15 10:20:57;;;;;;;3.80;3.50;;;;;;;17.48;51.73;63805.00;4968643;29;20448;-75
2022/10/15 10:23:25;;;;;;;4.55;3.75;;;;;;;17.59;53.49;63821.63;4967599;28;20243;-75
2022/10/15 10:25:57;;;;;;;3.72;3.42;;;;;;;17.69;50.47;63821.22;4959042;29;20209;-77
2022/10/15 10:28:29;;;;;;;3.45;3.22;;;;;;;17.65;50.64;63822.72;4967551;29;20304;-77
2022/10/15 10:31:03;;;;;;;3.50;3.28;;;;;;;18.08;50.93;63866.97;4968376;29;20204;-76
2022/10/15 10:33:33;;;;;;;3.92;3.60;;;;;;;18.33;49.49;63893.53;4967931;29;20540;-76
2022/10/15 10:36:01;;;;;;;3.78;3.47;;;;;;;18.59;47.77;63920.13;4967072;29;20207;-75
2022/10/15 10:38:31;;;;;;;5.38;3.20;;;;;;;18.74;46.59;63935.75;4966801;29;20224;-76
2022/10/15 10:41:04;;;;;;;4.15;3.63;;;;;;;18.97;47.13;63959.75;4969424;29;20274;-75
2022/10/15 10:43:31;;;;;;;3.08;2.88;;;;;;;18.89;47.29;63956.03;4955847;28;20234;-76
2022/10/15 10:46:00;;;;;;;3.17;3.00;;;;;;;18.85;46.74;63944.66;4957691;29;20207;-74
2022/10/15 10:48:29;;;;;;;3.60;3.30;;;;;;;18.73;47.91;63937.31;4968951;28;20239;-76
2022/10/15 10:51:04;;;;;;;4.70;3.88;;;;;;;18.31;48.06;63896.63;4968589;29;20204;-75
2022/10/15 10:53:34;;;;;;;3.55;3.25;;;;;;;18.35;47.89;63895.63;4966253;29;20532;-76
2022/10/15 10:56:09;;;;;;;3.70;3.45;;;;;;;18.39;48.45;63899.28;4949461;29;20244;-75
2022/10/15 10:58:37;;;;;;;4.35;3.17;;;;;;;18.25;48.55;63882.13;4948757;29;20235;-77
2022/10/15 11:01:04;;;;;;;6.78;3.50;;;;;;;18.04;50.70;63858.19;4956614;29;20227;-76
2022/10/15 11:03:36;;;;;;;3.47;3.10;;;;;;;18.03;49.64;63864.88;4966488;29;20251;-76
2022/10/15 11:06:22;;;;;;;3.75;3.00;;;;;;;18.09;49.21;63868.00;4968278;29;20200;-76
2022/10/15 11:09:01;;;;;;;3.60;3.28;;;;;;;18.07;49.66;63869.03;4967811;29;20224;-77
2022/10/15 11:11:37;;;;;;;6.72;3.50;;;;;;;17.80;49.65;63835.25;4965519;29;20200;-77
2022/10/15 11:14:16;;;;;;;4.22;3.25;;;;;;;17.80;50.24;63835.25;4966919;28;20235;-76
2022/10/15 11:16:49;;;;;;;3.47;3.10;;;;;;;17.84;50.17;63844.56;4967772;29;20229;-76
2022/10/15 11:19:27;;;;;;;3.63;3.33;;;;;;;17.84;50.31;63841.97;4960256;28;20252;-76
2022/10/15 11:22:14;;;;;;;3.83;3.53;;;;;;;17.91;49.37;63849.78;4966887;29;20489;-77
2022/10/15 11:24:46;;;;;;;4.38;3.38;;;;;;;18.07;49.58;63865.94;4968210;29;20247;-76
2022/10/15 11:27:39;;;;;;;4.18;3.88;;;;;;;18.35;48.19;63895.09;4967939;29;20426;-77
2022/10/15 11:30:25;;;;;;;4.00;3.58;;;;;;;18.56;47.74;63919.06;4965960;29;20235;-77
2022/10/15 11:33:01;;;;;;;4.03;3.00;;;;;;;18.60;46.23;63923.78;4967372;28;20231;-77
2022/10/15 11:35:39;;;;;;;3.53;3.22;;;;;;;18.79;45.08;63943.56;4967158;29;20587;-76
2022/10/15 11:38:22;;;;;;;3.30;3.10;;;;;;;18.62;45.62;63925.34;4965698;29;20224;-77
2022/10/15 11:41:07;;;;;;;2.80;2.60;;;;;;;18.86;45.01;63953.44;4966455;29;20208;-76
2022/10/15 11:43:52;;;;;;;3.47;2.47;;;;;;;19.08;44.86;63970.69;4967064;29;20304;-76